sensor_id;sensor_type;location;lat;lon;timestamp;P1;durP1;ratioP1;P2;durP2;ratioP2
20480;SDS011;10399;50.754;3.366;2022-11-20T00:01:10;65.03;;;27.90;;
20480;SDS011;10399;50.754;3.366;2022-11-20T00:03:42;62.78;;;27.85;;
20480;SDS011;10399;50.754;3.366;2022-11-20T00:06:10;65.18;;;27.67;;
20480;SDS011;10399;50.754;3.366;2022-11-20T00:08:39;62.90;;;27.10;;
20480;SDS011;10399;50.754;3.366;2022-11-20T00:11:08;73.85;;;28.60;;
20480;SDS011;10399;50.754;3.366;2022-11-20T00:13:42;67.15;;;28.52;;
20480;SDS011;10399;50.754;3.366;2022-11-20T00:16:10;62.92;;;28.00;;
20480;SDS011;10399;50.754;3.366;2022-11-20T00:18:38;66.78;;;27.63;;
20480;SDS011;10399;50.754;3.366;2022-11-20T00:21:06;67.60;;;26.38;;
20480;SDS011;10399;50.754;3.366;2022-11-20T00:23:37;67.05;;;29.25;;
20480;SDS011;10399;50.754;3.366;2022-11-20T00:26:08;71.78;;;29.25;;
20480;SDS011;10399;50.754;3.366;2022-11-20T00:28:36;66.80;;;27.55;;
20480;SDS011;10399;50.754;3.366;2022-11-20T00:31:04;72.88;;;28.92;;
20480;SDS011;10399;50.754;3.366;2022-11-20T00:33:33;73.50;;;29.55;;
20480;SDS011;10399;50.754;3.366;2022-11-20T00:36:01;67.43;;;28.58;;
20480;SDS011;10399;50.754;3.366;2022-11-20T00:38:33;78.43;;;27.15;;
20480;SDS011;10399;50.754;3.366;2022-11-20T00:41:01;67.93;;;28.10;;
20480;SDS011;10399;50.754;3.366;2022-11-20T00:43:33;68.75;;;29.00;;
20480;SDS011;10399;50.754;3.366;2022-11-20T00:46:01;72.70;;;28.88;;
20480;SDS011;10399;50.754;3.366;2022-11-20T00:48:31;78.00;;;28.70;;
20480;SDS011;10399;50.754;3.366;2022-11-20T00:50:58;72.53;;;29.92;;
20480;SDS011;10399;50.754;3.366;2022-11-20T00:53:26;78.82;;;30.05;;
20480;SDS011;10399;50.754;3.366;2022-11-20T00:55:59;79.03;;;29.63;;
20480;SDS011;10399;50.754;3.366;2022-11-20T00:58:30;71.78;;;27.23;;
20480;SDS011;10399;50.754;3.366;2022-11-20T01:01:05;67.60;;;26.42;;
20480;SDS011;10399;50.754;3.366;2022-11-20T01:03:44;73.15;;;27.42;;
20480;SDS011;10399;50.754;3.366;2022-11-20T01:08:50;75.47;;;29.45;;
20480;SDS011;10399;50.754;3.366;2022-11-20T01:11:20;75.25;;;27.52;;
20480;SDS011;10399;50.754;3.366;2022-11-20T01:13:49;75.15;;;28.27;;
20480;SDS011;10399;50.754;3.366;2022-11-20T01:16:19;84.65;;;30.15;;
20480;SDS011;10399;50.754;3.366;2022-11-20T01:18:47;79.90;;;30.67;;
20480;SDS011;10399;50.754;3.366;2022-11-20T01:23:47;77.47;;;30.17;;
20480;SDS011;10399;50.754;3.366;2022-11-20T01:26:17;76.60;;;28.95;;
20480;SDS011;10399;50.754;3.366;2022-11-20T01:28:46;75.15;;;30.17;;
20480;SDS011;10399;50.754;3.366;2022-11-20T01:31:18;80.35;;;29.10;;
20480;SDS011;10399;50.754;3.366;2022-11-20T01:34:01;77.88;;;29.50;;
20480;SDS011;10399;50.754;3.366;2022-11-20T01:36:33;80.72;;;30.35;;
20480;SDS011;10399;50.754;3.366;2022-11-20T01:39:03;79.22;;;29.95;;
20480;SDS011;10399;50.754;3.366;2022-11-20T01:41:32;74.70;;;28.20;;
20480;SDS011;10399;50.754;3.366;2022-11-20T01:44:20;83.13;;;30.23;;
20480;SDS011;10399;50.754;3.366;2022-11-20T01:47:08;81.78;;;28.63;;
20480;SDS011;10399;50.754;3.366;2022-11-20T01:49:49;84.18;;;31.13;;
20480;SDS011;10399;50.754;3.366;2022-11-20T01:52:27;82.78;;;30.50;;
20480;SDS011;10399;50.754;3.366;2022-11-20T01:55:09;89.85;;;31.83;;
20480;SDS011;10399;50.754;3.366;2022-11-20T01:57:41;80.60;;;30.13;;
20480;SDS011;10399;50.754;3.366;2022-11-20T02:00:12;78.15;;;31.65;;
20480;SDS011;10399;50.754;3.366;2022-11-20T02:02:44;83.13;;;31.60;;
20480;SDS011;10399;50.754;3.366;2022-11-20T02:07:48;83.10;;;31.40;;
20480;SDS011;10399;50.754;3.366;2022-11-20T02:10:16;80.25;;;30.92;;
20480;SDS011;10399;50.754;3.366;2022-11-20T02:12:43;88.00;;;32.45;;
20480;SDS011;10399;50.754;3.366;2022-11-20T02:15:29;86.22;;;31.48;;
20480;SDS011;10399;50.754;3.366;2022-11-20T02:17:58;85.22;;;30.60;;
20480;SDS011;10399;50.754;3.366;2022-11-20T02:20:25;93.75;;;32.03;;
20480;SDS011;10399;50.754;3.366;2022-11-20T02:22:57;85.93;;;32.25;;
20480;SDS011;10399;50.754;3.366;2022-11-20T02:25:30;86.10;;;32.35;;
20480;SDS011;10399;50.754;3.366;2022-11-20T02:27:59;85.35;;;31.55;;
20480;SDS011;10399;50.754;3.366;2022-11-20T02:30:27;89.25;;;31.40;;
20480;SDS011;10399;50.754;3.366;2022-11-20T02:32:54;95.05;;;32.25;;
20480;SDS011;10399;50.754;3.366;2022-11-20T02:37:48;90.80;;;31.58;;
20480;SDS011;10399;50.754;3.366;2022-11-20T02:40:19;86.50;;;31.90;;
20480;SDS011;10399;50.754;3.366;2022-11-20T02:42:46;89.60;;;32.17;;
20480;SDS011;10399;50.754;3.366;2022-11-20T02:45:13;82.60;;;31.58;;
20480;SDS011;10399;50.754;3.366;2022-11-20T02:47:40;86.70;;;31.27;;
20480;SDS011;10399;50.754;3.366;2022-11-20T02:50:07;85.95;;;31.63;;
20480;SDS011;10399;50.754;3.366;2022-11-20T02:52:35;80.82;;;30.38;;
20480;SDS011;10399;50.754;3.366;2022-11-20T02:55:02;86.97;;;33.00;;
20480;SDS011;10399;50.754;3.366;2022-11-20T02:57:30;86.95;;;31.10;;
20480;SDS011;10399;50.754;3.366;2022-11-20T02:59:57;85.38;;;31.65;;
20480;SDS011;10399;50.754;3.366;2022-11-20T03:02:24;86.13;;;32.25;;
20480;SDS011;10399;50.754;3.366;2022-11-20T03:04:51;92.07;;;32.22;;
20480;SDS011;10399;50.754;3.366;2022-11-20T03:07:17;90.63;;;30.73;;
20480;SDS011;10399;50.754;3.366;2022-11-20T03:09:45;85.05;;;31.25;;
20480;SDS011;10399;50.754;3.366;2022-11-20T03:12:11;89.43;;;30.67;;
20480;SDS011;10399;50.754;3.366;2022-11-20T03:14:39;88.97;;;30.83;;
20480;SDS011;10399;50.754;3.366;2022-11-20T03:17:06;80.60;;;29.88;;
20480;SDS011;10399;50.754;3.366;2022-11-20T03:19:33;76.57;;;28.38;;
20480;SDS011;10399;50.754;3.366;2022-11-20T03:22:00;79.70;;;29.02;;
20480;SDS011;10399;50.754;3.366;2022-11-20T03:24:27;83.60;;;29.25;;
20480;SDS011;10399;50.754;3.366;2022-11-20T03:26:55;79.82;;;28.48;;
20480;SDS011;10399;50.754;3.366;2022-11-20T03:29:21;78.30;;;27.65;;
20480;SDS011;10399;50.754;3.366;2022-11-20T03:31:48;81.28;;;29.42;;
20480;SDS011;10399;50.754;3.366;2022-11-20T03:34:15;71.38;;;27.30;;
20480;SDS011;10399;50.754;3.366;2022-11-20T03:36:42;72.63;;;28.55;;
20480;SDS011;10399;50.754;3.366;2022-11-20T03:39:10;66.90;;;27.05;;
20480;SDS011;10399;50.754;3.366;2022-11-20T03:41:38;68.82;;;28.08;;
20480;SDS011;10399;50.754;3.366;2022-11-20T03:44:08;70.35;;;27.27;;
20480;SDS011;10399;50.754;3.366;2022-11-20T03:46:37;76.35;;;26.55;;
20480;SDS011;10399;50.754;3.366;2022-11-20T03:49:04;69.55;;;27.73;;
20480;SDS011;10399;50.754;3.366;2022-11-20T03:51:32;71.75;;;27.35;;
20480;SDS011;10399;50.754;3.366;2022-11-20T03:54:02;63.22;;;25.00;;
20480;SDS011;10399;50.754;3.366;2022-11-20T03:56:33;70.53;;;26.90;;
20480;SDS011;10399;50.754;3.366;2022-11-20T03:59:03;68.68;;;26.98;;
20480;SDS011;10399;50.754;3.366;2022-11-20T04:01:34;68.75;;;26.38;;
20480;SDS011;10399;50.754;3.366;2022-11-20T04:04:03;60.63;;;25.95;;
20480;SDS011;10399;50.754;3.366;2022-11-20T04:06:35;61.28;;;25.85;;
20480;SDS011;10399;50.754;3.366;2022-11-20T04:09:04;61.78;;;26.40;;
20480;SDS011;10399;50.754;3.366;2022-11-20T04:11:33;60.72;;;26.25;;
20480;SDS011;10399;50.754;3.366;2022-11-20T04:14:02;68.25;;;26.02;;
20480;SDS011;10399;50.754;3.366;2022-11-20T04:16:34;67.10;;;25.77;;
20480;SDS011;10399;50.754;3.366;2022-11-20T04:19:03;59.83;;;25.25;;
20480;SDS011;10399;50.754;3.366;2022-11-20T04:21:35;60.88;;;24.95;;
20480;SDS011;10399;50.754;3.366;2022-11-20T04:24:02;69.88;;;26.98;;
20480;SDS011;10399;50.754;3.366;2022-11-20T04:26:30;66.70;;;27.02;;
20480;SDS011;10399;50.754;3.366;2022-11-20T04:28:57;71.00;;;26.60;;
20480;SDS011;10399;50.754;3.366;2022-11-20T04:31:26;71.45;;;27.42;;
20480;SDS011;10399;50.754;3.366;2022-11-20T04:33:55;75.10;;;26.90;;
20480;SDS011;10399;50.754;3.366;2022-11-20T04:36:26;71.90;;;28.38;;
20480;SDS011;10399;50.754;3.366;2022-11-20T04:38:58;71.97;;;27.48;;
20480;SDS011;10399;50.754;3.366;2022-11-20T04:41:27;73.53;;;27.52;;
20480;SDS011;10399;50.754;3.366;2022-11-20T04:43:57;74.90;;;28.95;;
20480;SDS011;10399;50.754;3.366;2022-11-20T04:46:29;67.30;;;26.80;;
20480;SDS011;10399;50.754;3.366;2022-11-20T04:48:58;70.25;;;28.10;;
20480;SDS011;10399;50.754;3.366;2022-11-20T04:51:26;71.03;;;26.40;;
20480;SDS011;10399;50.754;3.366;2022-11-20T04:53:54;68.22;;;25.77;;
20480;SDS011;10399;50.754;3.366;2022-11-20T04:56:21;71.00;;;27.05;;
20480;SDS011;10399;50.754;3.366;2022-11-20T04:58:48;72.32;;;27.33;;
20480;SDS011;10399;50.754;3.366;2022-11-20T05:01:16;75.53;;;29.38;;
20480;SDS011;10399;50.754;3.366;2022-11-20T05:03:45;76.05;;;28.50;;
20480;SDS011;10399;50.754;3.366;2022-11-20T05:06:12;69.38;;;27.67;;
20480;SDS011;10399;50.754;3.366;2022-11-20T05:08:42;83.60;;;29.58;;
20480;SDS011;10399;50.754;3.366;2022-11-20T05:11:10;90.05;;;31.00;;
20480;SDS011;10399;50.754;3.366;2022-11-20T05:13:39;108.85;;;34.03;;
20480;SDS011;10399;50.754;3.366;2022-11-20T05:16:11;104.32;;;32.70;;
20480;SDS011;10399;50.754;3.366;2022-11-20T05:18:40;102.10;;;32.42;;
20480;SDS011;10399;50.754;3.366;2022-11-20T05:21:08;107.68;;;34.38;;
20480;SDS011;10399;50.754;3.366;2022-11-20T05:23:36;107.72;;;31.70;;
20480;SDS011;10399;50.754;3.366;2022-11-20T05:26:04;92.35;;;30.38;;
20480;SDS011;10399;50.754;3.366;2022-11-20T05:28:33;111.78;;;32.17;;
20480;SDS011;10399;50.754;3.366;2022-11-20T05:31:07;90.15;;;30.92;;
20480;SDS011;10399;50.754;3.366;2022-11-20T05:33:35;95.88;;;30.00;;
20480;SDS011;10399;50.754;3.366;2022-11-20T05:36:03;96.15;;;30.83;;
20480;SDS011;10399;50.754;3.366;2022-11-20T05:38:30;92.70;;;29.42;;
20480;SDS011;10399;50.754;3.366;2022-11-20T05:41:04;89.70;;;28.05;;
20480;SDS011;10399;50.754;3.366;2022-11-20T05:43:33;64.57;;;25.50;;
20480;SDS011;10399;50.754;3.366;2022-11-20T05:46:01;74.30;;;25.75;;
20480;SDS011;10399;50.754;3.366;2022-11-20T05:48:29;72.90;;;24.63;;
20480;SDS011;10399;50.754;3.366;2022-11-20T05:50:57;72.85;;;24.80;;
20480;SDS011;10399;50.754;3.366;2022-11-20T05:53:25;72.18;;;24.65;;
20480;SDS011;10399;50.754;3.366;2022-11-20T05:55:59;75.30;;;25.38;;
20480;SDS011;10399;50.754;3.366;2022-11-20T05:58:31;78.78;;;25.83;;
20480;SDS011;10399;50.754;3.366;2022-11-20T06:01:10;69.82;;;25.63;;
20480;SDS011;10399;50.754;3.366;2022-11-20T06:03:42;73.55;;;25.08;;
20480;SDS011;10399;50.754;3.366;2022-11-20T06:06:13;73.93;;;25.13;;
20480;SDS011;10399;50.754;3.366;2022-11-20T06:08:42;81.35;;;26.35;;
20480;SDS011;10399;50.754;3.366;2022-11-20T06:11:11;72.10;;;25.58;;
20480;SDS011;10399;50.754;3.366;2022-11-20T06:13:39;81.10;;;25.98;;
20480;SDS011;10399;50.754;3.366;2022-11-20T06:16:08;77.50;;;26.35;;
20480;SDS011;10399;50.754;3.366;2022-11-20T06:18:36;77.00;;;25.75;;
20480;SDS011;10399;50.754;3.366;2022-11-20T06:21:12;95.82;;;24.85;;
20480;SDS011;10399;50.754;3.366;2022-11-20T06:23:42;72.13;;;24.60;;
20480;SDS011;10399;50.754;3.366;2022-11-20T06:26:17;77.82;;;25.45;;
20480;SDS011;10399;50.754;3.366;2022-11-20T06:28:49;61.88;;;23.83;;
20480;SDS011;10399;50.754;3.366;2022-11-20T06:31:17;109.97;;;26.25;;
20480;SDS011;10399;50.754;3.366;2022-11-20T06:33:46;127.97;;;26.10;;
20480;SDS011;10399;50.754;3.366;2022-11-20T06:36:14;80.45;;;24.75;;
20480;SDS011;10399;50.754;3.366;2022-11-20T06:38:42;78.30;;;23.95;;
20480;SDS011;10399;50.754;3.366;2022-11-20T06:41:10;94.78;;;26.35;;
20480;SDS011;10399;50.754;3.366;2022-11-20T06:43:48;79.72;;;27.20;;
20480;SDS011;10399;50.754;3.366;2022-11-20T06:46:15;74.78;;;25.67;;
20480;SDS011;10399;50.754;3.366;2022-11-20T06:48:44;71.82;;;23.30;;
20480;SDS011;10399;50.754;3.366;2022-11-20T06:51:14;67.65;;;24.40;;
20480;SDS011;10399;50.754;3.366;2022-11-20T06:53:41;88.65;;;24.65;;
20480;SDS011;10399;50.754;3.366;2022-11-20T06:56:08;66.00;;;24.10;;
20480;SDS011;10399;50.754;3.366;2022-11-20T06:58:36;90.38;;;24.92;;
20480;SDS011;10399;50.754;3.366;2022-11-20T07:01:07;74.03;;;24.02;;
20480;SDS011;10399;50.754;3.366;2022-11-20T07:03:38;75.13;;;23.08;;
20480;SDS011;10399;50.754;3.366;2022-11-20T07:06:06;73.20;;;22.30;;
20480;SDS011;10399;50.754;3.366;2022-11-20T07:08:33;64.25;;;22.70;;
20480;SDS011;10399;50.754;3.366;2022-11-20T07:11:02;64.70;;;24.88;;
20480;SDS011;10399;50.754;3.366;2022-11-20T07:13:31;78.90;;;23.70;;
20480;SDS011;10399;50.754;3.366;2022-11-20T07:15:59;66.15;;;24.02;;
20480;SDS011;10399;50.754;3.366;2022-11-20T07:18:27;58.70;;;22.85;;
20480;SDS011;10399;50.754;3.366;2022-11-20T07:20:54;110.13;;;23.38;;
20480;SDS011;10399;50.754;3.366;2022-11-20T07:23:21;74.43;;;22.90;;
20480;SDS011;10399;50.754;3.366;2022-11-20T07:25:49;65.13;;;22.88;;
20480;SDS011;10399;50.754;3.366;2022-11-20T07:28:16;84.90;;;22.30;;
20480;SDS011;10399;50.754;3.366;2022-11-20T07:30:43;70.88;;;22.60;;
20480;SDS011;10399;50.754;3.366;2022-11-20T07:33:19;78.53;;;23.73;;
20480;SDS011;10399;50.754;3.366;2022-11-20T07:35:46;55.78;;;21.75;;
20480;SDS011;10399;50.754;3.366;2022-11-20T07:38:13;55.80;;;21.02;;
20480;SDS011;10399;50.754;3.366;2022-11-20T07:40:40;55.70;;;21.45;;
20480;SDS011;10399;50.754;3.366;2022-11-20T07:43:07;55.97;;;21.63;;
20480;SDS011;10399;50.754;3.366;2022-11-20T07:45:34;58.20;;;20.98;;
20480;SDS011;10399;50.754;3.366;2022-11-20T07:48:01;62.33;;;21.27;;
20480;SDS011;10399;50.754;3.366;2022-11-20T07:50:29;64.60;;;22.38;;
20480;SDS011;10399;50.754;3.366;2022-11-20T07:53:01;62.53;;;21.90;;
20480;SDS011;10399;50.754;3.366;2022-11-20T07:55:29;54.70;;;22.65;;
20480;SDS011;10399;50.754;3.366;2022-11-20T07:57:57;60.22;;;21.65;;
20480;SDS011;10399;50.754;3.366;2022-11-20T08:00:25;55.55;;;21.45;;
20480;SDS011;10399;50.754;3.366;2022-11-20T08:02:54;46.80;;;19.63;;
20480;SDS011;10399;50.754;3.366;2022-11-20T08:05:21;52.40;;;19.55;;
20480;SDS011;10399;50.754;3.366;2022-11-20T08:07:48;52.67;;;19.13;;
20480;SDS011;10399;50.754;3.366;2022-11-20T08:10:16;49.63;;;20.80;;
20480;SDS011;10399;50.754;3.366;2022-11-20T08:12:44;47.88;;;20.38;;
20480;SDS011;10399;50.754;3.366;2022-11-20T08:15:34;46.30;;;19.35;;
20480;SDS011;10399;50.754;3.366;2022-11-20T08:18:03;44.03;;;18.85;;
20480;SDS011;10399;50.754;3.366;2022-11-20T08:20:50;42.95;;;19.00;;
20480;SDS011;10399;50.754;3.366;2022-11-20T08:23:17;43.47;;;17.73;;
20480;SDS011;10399;50.754;3.366;2022-11-20T08:25:48;43.17;;;17.02;;
20480;SDS011;10399;50.754;3.366;2022-11-20T08:28:17;45.90;;;17.25;;
20480;SDS011;10399;50.754;3.366;2022-11-20T08:30:47;41.85;;;16.77;;
20480;SDS011;10399;50.754;3.366;2022-11-20T08:33:14;39.83;;;16.23;;
20480;SDS011;10399;50.754;3.366;2022-11-20T08:35:46;47.58;;;17.60;;
20480;SDS011;10399;50.754;3.366;2022-11-20T08:38:13;35.40;;;16.73;;
20480;SDS011;10399;50.754;3.366;2022-11-20T08:40:40;42.13;;;18.35;;
20480;SDS011;10399;50.754;3.366;2022-11-20T08:43:27;36.60;;;17.30;;
20480;SDS011;10399;50.754;3.366;2022-11-20T08:45:56;35.50;;;15.50;;
20480;SDS011;10399;50.754;3.366;2022-11-20T08:48:23;40.40;;;15.13;;
20480;SDS011;10399;50.754;3.366;2022-11-20T08:50:50;36.20;;;14.63;;
20480;SDS011;10399;50.754;3.366;2022-11-20T08:53:18;37.30;;;14.65;;
20480;SDS011;10399;50.754;3.366;2022-11-20T08:55:45;36.28;;;13.70;;
20480;SDS011;10399;50.754;3.366;2022-11-20T08:58:13;32.10;;;13.13;;
20480;SDS011;10399;50.754;3.366;2022-11-20T09:00:40;33.80;;;12.65;;
20480;SDS011;10399;50.754;3.366;2022-11-20T09:03:07;25.38;;;11.68;;
20480;SDS011;10399;50.754;3.366;2022-11-20T09:05:34;29.80;;;11.27;;
20480;SDS011;10399;50.754;3.366;2022-11-20T09:08:01;25.33;;;10.93;;
20480;SDS011;10399;50.754;3.366;2022-11-20T09:10:28;28.67;;;10.80;;
20480;SDS011;10399;50.754;3.366;2022-11-20T09:12:55;21.55;;;9.23;;
20480;SDS011;10399;50.754;3.366;2022-11-20T09:15:22;21.88;;;8.65;;
20480;SDS011;10399;50.754;3.366;2022-11-20T09:17:51;20.70;;;8.35;;
20480;SDS011;10399;50.754;3.366;2022-11-20T09:20:18;18.45;;;7.05;;
20480;SDS011;10399;50.754;3.366;2022-11-20T09:22:45;13.88;;;6.75;;
20480;SDS011;10399;50.754;3.366;2022-11-20T09:25:12;17.55;;;6.07;;
20480;SDS011;10399;50.754;3.366;2022-11-20T09:27:39;12.40;;;5.88;;
20480;SDS011;10399;50.754;3.366;2022-11-20T09:30:10;15.70;;;5.72;;
20480;SDS011;10399;50.754;3.366;2022-11-20T09:32:38;15.52;;;4.93;;
20480;SDS011;10399;50.754;3.366;2022-11-20T09:35:05;13.57;;;5.47;;
20480;SDS011;10399;50.754;3.366;2022-11-20T09:37:33;9.63;;;4.10;;
20480;SDS011;10399;50.754;3.366;2022-11-20T09:40:00;11.05;;;6.28;;
20480;SDS011;10399;50.754;3.366;2022-11-20T09:42:41;13.90;;;4.63;;
20480;SDS011;10399;50.754;3.366;2022-11-20T09:45:23;17.95;;;7.80;;
20480;SDS011;10399;50.754;3.366;2022-11-20T09:48:05;7.72;;;3.47;;
20480;SDS011;10399;50.754;3.366;2022-11-20T09:50:36;10.55;;;4.15;;
20480;SDS011;10399;50.754;3.366;2022-11-20T09:53:28;6.30;;;3.50;;
20480;SDS011;10399;50.754;3.366;2022-11-20T09:56:03;8.38;;;2.80;;
20480;SDS011;10399;50.754;3.366;2022-11-20T09:58:32;5.97;;;2.70;;
20480;SDS011;10399;50.754;3.366;2022-11-20T10:01:36;7.05;;;2.95;;
20480;SDS011;10399;50.754;3.366;2022-11-20T10:04:19;10.45;;;3.15;;
20480;SDS011;10399;50.754;3.366;2022-11-20T10:07:00;9.43;;;3.30;;
20480;SDS011;10399;50.754;3.366;2022-11-20T10:09:50;8.65;;;3.03;;
20480;SDS011;10399;50.754;3.366;2022-11-20T10:15:14;5.78;;;2.88;;
20480;SDS011;10399;50.754;3.366;2022-11-20T10:17:50;11.48;;;2.75;;
20480;SDS011;10399;50.754;3.366;2022-11-20T10:20:35;6.60;;;3.00;;
20480;SDS011;10399;50.754;3.366;2022-11-20T10:29:33;6.63;;;2.70;;
20480;SDS011;10399;50.754;3.366;2022-11-20T10:32:04;11.23;;;3.20;;
20480;SDS011;10399;50.754;3.366;2022-11-20T10:37:27;8.75;;;2.88;;
20480;SDS011;10399;50.754;3.366;2022-11-20T10:40:03;5.22;;;2.67;;
20480;SDS011;10399;50.754;3.366;2022-11-20T10:42:41;9.73;;;3.40;;
20480;SDS011;10399;50.754;3.366;2022-11-20T10:48:16;14.10;;;3.45;;
20480;SDS011;10399;50.754;3.366;2022-11-20T10:53:33;10.60;;;3.42;;
20480;SDS011;10399;50.754;3.366;2022-11-20T10:56:17;11.70;;;3.78;;
20480;SDS011;10399;50.754;3.366;2022-11-20T10:59:10;11.63;;;3.28;;
20480;SDS011;10399;50.754;3.366;2022-11-20T11:01:57;10.13;;;3.28;;
20480;SDS011;10399;50.754;3.366;2022-11-20T11:04:43;8.43;;;3.08;;
20480;SDS011;10399;50.754;3.366;2022-11-20T11:07:17;8.50;;;2.97;;
20480;SDS011;10399;50.754;3.366;2022-11-20T11:09:50;13.13;;;3.22;;
20480;SDS011;10399;50.754;3.366;2022-11-20T11:12:20;8.48;;;3.42;;
20480;SDS011;10399;50.754;3.366;2022-11-20T11:14:54;7.97;;;3.25;;
20480;SDS011;10399;50.754;3.366;2022-11-20T11:20:00;11.10;;;2.80;;
20480;SDS011;10399;50.754;3.366;2022-11-20T11:22:32;8.23;;;2.83;;
20480;SDS011;10399;50.754;3.366;2022-11-20T11:25:01;7.85;;;2.95;;
20480;SDS011;10399;50.754;3.366;2022-11-20T11:27:28;8.15;;;2.95;;
20480;SDS011;10399;50.754;3.366;2022-11-20T11:30:39;9.02;;;2.83;;
20480;SDS011;10399;50.754;3.366;2022-11-20T11:32:50;9.35;;;3.60;;
20480;SDS011;10399;50.754;3.366;2022-11-20T11:35:28;14.65;;;3.92;;
20480;SDS011;10399;50.754;3.366;2022-11-20T11:38:02;9.50;;;4.28;;
20480;SDS011;10399;50.754;3.366;2022-11-20T11:40:32;19.60;;;5.57;;
20480;SDS011;10399;50.754;3.366;2022-11-20T11:43:01;13.57;;;3.97;;
20480;SDS011;10399;50.754;3.366;2022-11-20T11:45:31;13.27;;;4.32;;
20480;SDS011;10399;50.754;3.366;2022-11-20T11:48:00;10.45;;;4.55;;
20480;SDS011;10399;50.754;3.366;2022-11-20T11:50:30;12.93;;;5.20;;
20480;SDS011;10399;50.754;3.366;2022-11-20T11:58:16;12.00;;;5.55;;
20480;SDS011;10399;50.754;3.366;2022-11-20T12:06:37;10.18;;;4.30;;
20480;SDS011;10399;50.754;3.366;2022-11-20T12:09:09;6.93;;;4.20;;
20480;SDS011;10399;50.754;3.366;2022-11-20T12:11:54;5.40;;;3.30;;
20480;SDS011;10399;50.754;3.366;2022-11-20T12:14:36;6.40;;;3.10;;
20480;SDS011;10399;50.754;3.366;2022-11-20T12:17:04;10.25;;;5.25;;
20480;SDS011;10399;50.754;3.366;2022-11-20T12:19:34;6.05;;;3.72;;
20480;SDS011;10399;50.754;3.366;2022-11-20T12:25:07;5.22;;;3.03;;
20480;SDS011;10399;50.754;3.366;2022-11-20T12:30:32;4.00;;;2.30;;
20480;SDS011;10399;50.754;3.366;2022-11-20T12:33:13;3.00;;;2.42;;
20480;SDS011;10399;50.754;3.366;2022-11-20T12:45:06;3.30;;;2.42;;
20480;SDS011;10399;50.754;3.366;2022-11-20T12:47:52;6.88;;;2.83;;
20480;SDS011;10399;50.754;3.366;2022-11-20T12:59:32;4.07;;;2.70;;
20480;SDS011;10399;50.754;3.366;2022-11-20T13:02:10;3.55;;;2.03;;
20480;SDS011;10399;50.754;3.366;2022-11-20T13:07:46;2.88;;;2.33;;
20480;SDS011;10399;50.754;3.366;2022-11-20T13:10:33;3.33;;;2.30;;
20480;SDS011;10399;50.754;3.366;2022-11-20T13:13:21;4.07;;;2.20;;
20480;SDS011;10399;50.754;3.366;2022-11-20T13:18:19;3.97;;;2.00;;
20480;SDS011;10399;50.754;3.366;2022-11-20T13:20:46;3.08;;;2.58;;
20480;SDS011;10399;50.754;3.366;2022-11-20T13:23:23;5.32;;;2.63;;
20480;SDS011;10399;50.754;3.366;2022-11-20T13:26:04;2.83;;;2.40;;
20480;SDS011;10399;50.754;3.366;2022-11-20T13:28:40;6.53;;;2.55;;
20480;SDS011;10399;50.754;3.366;2022-11-20T13:31:23;3.33;;;2.50;;
20480;SDS011;10399;50.754;3.366;2022-11-20T13:33:59;5.90;;;2.78;;
20480;SDS011;10399;50.754;3.366;2022-11-20T13:36:31;3.63;;;2.40;;
20480;SDS011;10399;50.754;3.366;2022-11-20T13:39:01;7.15;;;3.03;;
20480;SDS011;10399;50.754;3.366;2022-11-20T13:41:30;4.82;;;2.92;;
20480;SDS011;10399;50.754;3.366;2022-11-20T13:44:15;7.75;;;3.00;;
20480;SDS011;10399;50.754;3.366;2022-11-20T13:47:18;7.30;;;2.90;;
20480;SDS011;10399;50.754;3.366;2022-11-20T13:49:46;9.60;;;3.42;;
20480;SDS011;10399;50.754;3.366;2022-11-20T14:02:50;8.07;;;4.05;;
20480;SDS011;10399;50.754;3.366;2022-11-20T14:05:26;9.48;;;3.53;;
20480;SDS011;10399;50.754;3.366;2022-11-20T14:07:53;12.57;;;3.78;;
20480;SDS011;10399;50.754;3.366;2022-11-20T14:10:25;12.57;;;3.63;;
20480;SDS011;10399;50.754;3.366;2022-11-20T14:12:57;15.90;;;4.78;;
20480;SDS011;10399;50.754;3.366;2022-11-20T14:15:32;9.68;;;3.58;;
20480;SDS011;10399;50.754;3.366;2022-11-20T14:18:11;7.82;;;3.00;;
20480;SDS011;10399;50.754;3.366;2022-11-20T14:20:41;7.95;;;2.95;;
20480;SDS011;10399;50.754;3.366;2022-11-20T14:23:09;8.10;;;3.38;;
20480;SDS011;10399;50.754;3.366;2022-11-20T14:25:41;18.40;;;4.20;;
20480;SDS011;10399;50.754;3.366;2022-11-20T14:28:11;17.90;;;7.32;;
20480;SDS011;10399;50.754;3.366;2022-11-20T14:30:48;18.33;;;4.95;;
20480;SDS011;10399;50.754;3.366;2022-11-20T14:33:16;24.42;;;6.13;;
20480;SDS011;10399;50.754;3.366;2022-11-20T14:35:44;23.25;;;7.05;;
20480;SDS011;10399;50.754;3.366;2022-11-20T14:38:17;16.55;;;5.50;;
20480;SDS011;10399;50.754;3.366;2022-11-20T14:40:47;17.23;;;4.82;;
20480;SDS011;10399;50.754;3.366;2022-11-20T14:45:54;14.25;;;4.40;;
20480;SDS011;10399;50.754;3.366;2022-11-20T14:48:23;21.38;;;4.20;;
20480;SDS011;10399;50.754;3.366;2022-11-20T14:50:57;9.95;;;3.42;;
20480;SDS011;10399;50.754;3.366;2022-11-20T14:53:26;14.45;;;3.08;;
20480;SDS011;10399;50.754;3.366;2022-11-20T14:55:57;14.85;;;3.10;;
20480;SDS011;10399;50.754;3.366;2022-11-20T14:58:30;12.63;;;4.05;;
20480;SDS011;10399;50.754;3.366;2022-11-20T15:01:00;14.35;;;3.50;;
20480;SDS011;10399;50.754;3.366;2022-11-20T15:03:32;19.15;;;3.28;;
20480;SDS011;10399;50.754;3.366;2022-11-20T15:06:02;14.93;;;2.75;;
20480;SDS011;10399;50.754;3.366;2022-11-20T15:08:29;12.13;;;2.97;;
20480;SDS011;10399;50.754;3.366;2022-11-20T15:10:56;20.92;;;3.40;;
20480;SDS011;10399;50.754;3.366;2022-11-20T15:13:34;15.20;;;2.88;;
20480;SDS011;10399;50.754;3.366;2022-11-20T15:16:04;14.23;;;3.88;;
20480;SDS011;10399;50.754;3.366;2022-11-20T15:18:45;19.40;;;2.65;;
20480;SDS011;10399;50.754;3.366;2022-11-20T15:21:13;18.02;;;3.75;;
20480;SDS011;10399;50.754;3.366;2022-11-20T15:23:42;20.50;;;2.85;;
20480;SDS011;10399;50.754;3.366;2022-11-20T15:26:09;16.45;;;3.17;;
20480;SDS011;10399;50.754;3.366;2022-11-20T15:28:45;5.88;;;2.33;;
20480;SDS011;10399;50.754;3.366;2022-11-20T15:31:15;19.52;;;3.30;;
20480;SDS011;10399;50.754;3.366;2022-11-20T15:33:43;19.90;;;3.72;;
20480;SDS011;10399;50.754;3.366;2022-11-20T15:36:10;19.88;;;2.80;;
20480;SDS011;10399;50.754;3.366;2022-11-20T15:38:38;14.10;;;3.05;;
20480;SDS011;10399;50.754;3.366;2022-11-20T15:41:05;16.27;;;4.15;;
20480;SDS011;10399;50.754;3.366;2022-11-20T15:43:33;25.20;;;3.88;;
20480;SDS011;10399;50.754;3.366;2022-11-20T15:49:01;19.38;;;5.05;;
20480;SDS011;10399;50.754;3.366;2022-11-20T15:53:57;25.88;;;7.85;;
20480;SDS011;10399;50.754;3.366;2022-11-20T15:56:24;16.88;;;5.05;;
20480;SDS011;10399;50.754;3.366;2022-11-20T15:58:51;23.77;;;7.60;;
20480;SDS011;10399;50.754;3.366;2022-11-20T16:01:19;17.58;;;3.80;;
20480;SDS011;10399;50.754;3.366;2022-11-20T16:03:48;13.55;;;4.10;;
20480;SDS011;10399;50.754;3.366;2022-11-20T16:06:15;24.20;;;3.70;;
20480;SDS011;10399;50.754;3.366;2022-11-20T16:08:42;21.17;;;4.43;;
20480;SDS011;10399;50.754;3.366;2022-11-20T16:11:13;20.65;;;4.18;;
20480;SDS011;10399;50.754;3.366;2022-11-20T16:13:41;21.33;;;4.68;;
20480;SDS011;10399;50.754;3.366;2022-11-20T16:16:34;18.75;;;5.93;;
20480;SDS011;10399;50.754;3.366;2022-11-20T16:19:02;31.85;;;5.07;;
20480;SDS011;10399;50.754;3.366;2022-11-20T16:21:30;20.02;;;4.85;;